Time;durP1;ratioP1;P1;durP2;ratioP2;P2;SDS_P1;SDS_P2;PMS_P1;PMS_P2;Temp;Humidity;BMP_temperature;BMP_pressure;BME280_temperature;BME280_humidity;BME280_pressure;Samples;Min_cycle;Max_cycle;Signal;HPM_P1;HPM_P2
2024/04/08 00:00:43;;;;;;;;;;;;;;;19.77;45.24;100358.50;5231063;26;95168;-73
2024/04/08 00:03:09;;;;;;;;;;;;;;;19.76;45.47;100358.81;5240326;26;94368;-70
2024/04/08 00:05:35;;;;;;;;;;;;;;;19.72;45.72;100347.75;5191940;26;94957;-70
2024/04/08 00:08:01;;;;;;;;;;;;;;;19.70;45.14;100349.22;5222498;26;94996;-70
2024/04/08 00:10:27;;;;;;;;;;;;;;;19.67;45.43;100352.63;5221832;26;94970;-73
2024/04/08 00:12:54;;;;;;;;;;;;;;;19.66;45.07;100351.03;5221709;26;94431;-70
2024/04/08 00:15:20;;;;;;;;;;;;;;;19.62;45.08;100342.69;5247238;26;94788;-70
2024/04/08 00:17:46;;;;;;;;;;;;;;;19.61;45.45;100338.31;5226481;26;94117;-70
2024/04/08 00:20:12;;;;;;;;;;;;;;;19.57;45.28;100329.97;5196140;26;96499;-70
2024/04/08 00:22:40;;;;;;;;;;;;;;;19.55;45.28;100317.75;5225697;26;94658;-73
2024/04/08 00:25:09;;;;;;;;;;;;;;;19.53;45.16;100322.75;5231287;26;96264;-70
2024/04/08 00:27:36;;;;;;;;;;;;;;;19.51;45.38;100320.34;5225000;26;96022;-70
2024/04/08 00:30:04;;;;;;;;;;;;;;;19.48;45.84;100312.00;5234243;26;94928;-73
2024/04/08 00:32:30;;;;;;;;;;;;;;;19.46;45.61;100320.56;5199963;26;94513;-70
2024/04/08 00:34:56;;;;;;;;;;;;;;;19.44;45.76;100324.75;5227274;26;94949;-70
2024/04/08 00:37:22;;;;;;;;;;;;;;;19.43;45.68;100328.59;5234550;26;94459;-73
2024/04/08 00:39:49;;;;;;;;;;;;;;;19.40;45.76;100330.06;5226232;26;94284;-70
2024/04/08 00:42:15;;;;;;;;;;;;;;;19.37;45.77;100327.97;5195236;26;94555;-70
2024/04/08 00:44:42;;;;;;;;;;;;;;;19.35;45.58;100316.59;5195832;26;96013;-70
2024/04/08 00:47:11;;;;;;;;;;;;;;;19.32;45.84;100312.56;5199720;26;95950;-73
2024/04/08 00:49:40;;;;;;;;;;;;;;;19.30;45.36;100308.59;5228737;26;94374;-69
2024/04/08 00:52:10;;;;;;;;;;;;;;;19.28;45.79;100311.63;5231056;26;96307;-70
2024/04/08 00:54:36;;;;;;;;;;;;;;;19.27;45.67;100314.72;5223925;26;94039;-70
2024/04/08 00:57:03;;;;;;;;;;;;;;;19.25;45.52;100315.00;5203575;26;96129;-70
2024/04/08 00:59:30;;;;;;;;;;;;;;;19.23;45.70;100306.38;5204846;26;94149;-70
2024/04/08 01:01:56;;;;;;;;;;;;;;;19.22;45.48;100309.44;5231315;26;94697;-73
2024/04/08 01:04:22;;;;;;;;;;;;;;;19.21;45.78;100308.59;5220688;26;96426;-70
2024/04/08 01:06:48;;;;;;;;;;;;;;;19.19;45.80;100299.97;5224616;26;97835;-73
2024/04/08 01:09:15;;;;;;;;;;;;;;;19.18;45.55;100295.63;5231625;26;94207;-71
2024/04/08 01:11:43;;;;;;;;;;;;;;;19.18;45.55;100286.59;5202845;26;94464;-70
2024/04/08 01:14:09;;;;;;;;;;;;;;;19.17;45.69;100277.63;5199122;26;94411;-70
2024/04/08 01:16:35;;;;;;;;;;;;;;;19.15;45.34;100263.50;5231027;26;94659;-74
2024/04/08 01:19:01;;;;;;;;;;;;;;;19.15;45.24;100257.25;5224661;26;96272;-70
2024/04/08 01:21:28;;;;;;;;;;;;;;;19.13;45.71;100263.81;5226261;26;94052;-70
2024/04/08 01:23:54;;;;;;;;;;;;;;;19.13;45.66;100252.88;5194031;26;98854;-73
2024/04/08 01:26:20;;;;;;;;;;;;;;;19.13;45.43;100236.50;5203819;26;94593;-73
2024/04/08 01:28:46;;;;;;;;;;;;;;;19.12;45.27;100212.25;5247217;26;96051;-73
2024/04/08 01:31:15;;;;;;;;;;;;;;;19.12;45.70;100195.88;5205813;26;94365;-70
2024/04/08 01:33:42;;;;;;;;;;;;;;;19.11;45.35;100222.38;5243336;26;94493;-73
2024/04/08 01:36:11;;;;;;;;;;;;;;;19.10;45.22;100234.44;5221767;26;94337;-70
2024/04/08 01:38:39;;;;;;;;;;;;;;;19.10;45.46;100223.53;5196337;26;96423;-70
2024/04/08 01:41:05;;;;;;;;;;;;;;;19.09;45.64;100241.03;5199727;26;94244;-73
2024/04/08 01:43:31;;;;;;;;;;;;;;;19.09;45.85;100259.34;5248587;26;94807;-70
2024/04/08 01:45:57;;;;;;;;;;;;;;;19.08;45.65;100260.47;5197759;26;97505;-73
2024/04/08 01:48:23;;;;;;;;;;;;;;;19.08;45.65;100263.22;5199968;26;94250;-70
2024/04/08 01:50:49;;;;;;;;;;;;;;;19.07;45.63;100270.59;5222687;26;96701;-73
2024/04/08 01:53:16;;;;;;;;;;;;;;;19.07;45.53;100269.81;5198415;26;95221;-73
2024/04/08 01:55:42;;;;;;;;;;;;;;;19.05;45.55;100267.38;5231028;26;94875;-73
2024/04/08 01:58:09;;;;;;;;;;;;;;;19.05;45.77;100267.38;5232334;26;94480;-69
2024/04/08 02:00:35;;;;;;;;;;;;;;;19.04;45.27;100265.00;5249306;26;94963;-70
2024/04/08 02:03:01;;;;;;;;;;;;;;;19.02;45.43;100257.16;5236313;26;94842;-73
2024/04/08 02:05:27;;;;;;;;;;;;;;;19.02;45.61;100250.84;5229287;26;94273;-70
2024/04/08 02:07:54;;;;;;;;;;;;;;;19.02;45.58;100245.38;5248560;26;94827;-73
2024/04/08 02:10:20;;;;;;;;;;;;;;;19.00;45.56;100240.28;5232360;26;94895;-73
2024/04/08 02:12:48;;;;;;;;;;;;;;;18.98;45.83;100219.88;5218725;26;94881;-69
2024/04/08 02:15:14;;;;;;;;;;;;;;;18.96;45.57;100231.13;5234814;26;94384;-73
2024/04/08 02:17:41;;;;;;;;;;;;;;;18.96;45.23;100246.72;5195892;26;95458;-73
2024/04/08 02:20:09;;;;;;;;;;;;;;;18.95;45.68;100245.13;5191803;26;94031;-70
2024/04/08 02:22:36;;;;;;;;;;;;;;;18.93;45.50;100233.72;5242184;26;102998;-73
2024/04/08 02:25:02;;;;;;;;;;;;;;;18.91;45.57;100236.00;5194171;26;94966;-70
2024/04/08 02:27:29;;;;;;;;;;;;;;;18.91;45.70;100241.47;5198862;26;95072;-70
2024/04/08 02:29:57;;;;;;;;;;;;;;;18.89;45.74;100237.09;5245447;26;95290;-70
2024/04/08 02:32:23;;;;;;;;;;;;;;;18.87;45.82;100233.91;5196649;26;94597;-73
2024/04/08 02:34:50;;;;;;;;;;;;;;;18.87;45.90;100233.13;5216655;26;96278;-70
2024/04/08 02:37:16;;;;;;;;;;;;;;;18.84;45.72;100229.09;5241739;26;94254;-73
2024/04/08 02:39:42;;;;;;;;;;;;;;;18.83;45.86;100235.69;5207979;26;94477;-73
2024/04/08 02:42:08;;;;;;;;;;;;;;;18.82;45.68;100236.84;5224732;26;95042;-73
2024/04/08 02:44:36;;;;;;;;;;;;;;;18.80;46.08;100227.38;5225750;26;94825;-70
2024/04/08 02:47:03;;;;;;;;;;;;;;;18.79;45.71;100225.78;5204563;26;94183;-69
2024/04/08 02:49:32;;;;;;;;;;;;;;;18.78;45.67;100221.41;5198247;26;94800;-70
2024/04/08 02:52:10;;;;;;;;;;;;;;;18.76;45.59;100220.97;5223766;26;94651;-69
2024/04/08 02:54:36;;;;;;;;;;;;;;;18.74;45.80;100221.25;5225740;26;95608;-70
2024/04/08 02:57:04;;;;;;;;;;;;;;;18.72;45.75;100218.06;5248309;26;94229;-73
2024/04/08 02:59:30;;;;;;;;;;;;;;;18.71;45.73;100219.22;5223125;26;96471;-73
2024/04/08 03:01:56;;;;;;;;;;;;;;;18.68;45.65;100210.84;5251597;26;94447;-74
2024/04/08 03:04:22;;;;;;;;;;;;;;;18.68;45.89;100216.31;5227406;26;94433;-73
2024/04/08 03:06:48;;;;;;;;;;;;;;;18.67;45.57;100206.50;5205980;26;94321;-74
2024/04/08 03:09:15;;;;;;;;;;;;;;;18.64;45.84;100199.78;5217694;26;94543;-74
2024/04/08 03:11:41;;;;;;;;;;;;;;;18.61;45.79;100203.94;5246640;26;94570;-69
2024/04/08 03:14:07;;;;;;;;;;;;;;;18.60;45.86;100199.63;5222445;26;96277;-70
2024/04/08 03:16:34;;;;;;;;;;;;;;;18.58;45.70;100201.88;5228852;26;94484;-74
2024/04/08 03:19:00;;;;;;;;;;;;;;;18.56;45.60;100197.88;5222694;26;95396;-74
2024/04/08 03:21:26;;;;;;;;;;;;;;;18.54;45.87;100209.13;5196841;26;96408;-70
2024/04/08 03:23:52;;;;;;;;;;;;;;;18.52;45.74;100205.94;5224740;26;95763;-69
2024/04/08 03:26:18;;;;;;;;;;;;;;;18.51;45.72;100204.34;5224115;26;94626;-69
2024/04/08 03:28:44;;;;;;;;;;;;;;;18.50;45.85;100204.63;5195487;26;94550;-70
2024/04/08 03:31:13;;;;;;;;;;;;;;;18.49;45.96;100197.59;5221913;26;95906;-74
2024/04/08 03:33:39;;;;;;;;;;;;;;;18.47;45.82;100199.81;5224969;26;96565;-70
2024/04/08 03:36:09;;;;;;;;;;;;;;;18.45;45.72;100202.91;5246349;26;96150;-70
2024/04/08 03:38:35;;;;;;;;;;;;;;;18.43;45.86;100207.06;5212797;26;94358;-69
2024/04/08 03:41:02;;;;;;;;;;;;;;;18.40;45.92;100208.53;5226561;26;94619;-73
2024/04/08 03:43:29;;;;;;;;;;;;;;;18.39;46.11;100206.91;5223853;26;95377;-74
2024/04/08 03:45:57;;;;;;;;;;;;;;;18.37;46.01;100203.72;5195094;26;94731;-73
2024/04/08 03:48:23;;;;;;;;;;;;;;;18.36;45.98;100196.69;5220575;26;94404;-69
2024/04/08 03:50:49;;;;;;;;;;;;;;;18.34;45.91;100193.47;5208789;26;95455;-73
2024/04/08 03:53:17;;;;;;;;;;;;;;;18.32;45.34;100188.34;5205013;26;96270;-70
2024/04/08 03:55:43;;;;;;;;;;;;;;;18.31;45.97;100184.00;5231095;26;95059;-73
2024/04/08 03:58:09;;;;;;;;;;;;;;;18.29;45.95;100182.72;5204099;26;94225;-73
2024/04/08 04:00:35;;;;;;;;;;;;;;;18.28;45.72;100183.88;5194716;26;94517;-74
2024/04/08 04:03:01;;;;;;;;;;;;;;;18.26;45.95;100184.16;5231680;26;96207;-74
2024/04/08 04:05:29;;;;;;;;;;;;;;;18.25;45.81;100181.78;5193041;26;95498;-73
2024/04/08 04:07:58;;;;;;;;;;;;;;;18.22;45.96;100179.69;5192409;26;94342;-69
2024/04/08 04:10:25;;;;;;;;;;;;;;;18.21;46.00;100178.09;5200191;26;94766;-73
2024/04/08 04:12:52;;;;;;;;;;;;;;;18.20;46.29;100173.78;5196703;26;94615;-69
2024/04/08 04:15:20;;;;;;;;;;;;;;;18.18;45.72;100186.94;5194630;26;94778;-74
2024/04/08 04:17:46;;;;;;;;;;;;;;;18.18;45.70;100184.19;5200564;26;94788;-70
2024/04/08 04:20:15;;;;;;;;;;;;;;;18.16;46.25;100173.63;5194460;26;94628;-69
2024/04/08 04:22:42;;;;;;;;;;;;;;;18.15;45.99;100170.06;5198013;26;94821;-70
2024/04/08 04:25:08;;;;;;;;;;;;;;;18.13;45.93;100166.88;5191622;26;93980;-69
2024/04/08 04:27:34;;;;;;;;;;;;;;;18.14;46.04;100170.41;5206429;26;94634;-73
2024/04/08 04:30:01;;;;;;;;;;;;;;;18.14;45.98;100170.41;5226982;26;94707;-69
2024/04/08 04:32:28;;;;;;;;;;;;;;;18.14;46.01;100176.66;5226317;26;95641;-74
2024/04/08 04:34:54;;;;;;;;;;;;;;;18.15;45.93;100177.47;5201919;26;94534;-74
2024/04/08 04:37:21;;;;;;;;;;;;;;;18.15;45.88;100178.25;5221007;26;94997;-74
2024/04/08 04:39:47;;;;;;;;;;;;;;;18.16;45.66;100173.63;5220870;26;95519;-75
2024/04/08 04:42:14;;;;;;;;;;;;;;;18.18;45.70;100182.25;5223072;26;94370;-70
2024/04/08 04:44:40;;;;;;;;;;;;;;;18.20;45.69;100182.75;5191050;26;95766;-70
2024/04/08 04:47:08;;;;;;;;;;;;;;;18.23;46.17;100184.00;5214059;26;94977;-74
2024/04/08 04:49:35;;;;;;;;;;;;;;;18.25;45.83;100185.31;5222013;26;95268;-69
2024/04/08 04:52:02;;;;;;;;;;;;;;;18.28;45.93;100189.31;5218210;26;94745;-70
2024/04/08 04:54:28;;;;;;;;;;;;;;;18.29;45.86;100186.25;5215458;26;94996;-69
2024/04/08 04:56:57;;;;;;;;;;;;;;;18.32;45.56;100176.63;5215861;26;94153;-74
2024/04/08 04:59:24;;;;;;;;;;;;;;;18.34;45.48;100183.34;5219837;26;95444;-74
2024/04/08 05:01:51;;;;;;;;;;;;;;;18.37;45.71;100176.44;5194572;26;94883;-70
2024/04/08 05:04:17;;;;;;;;;;;;;;;18.40;45.82;100175.78;5221937;26;94367;-70
2024/04/08 05:06:43;;;;;;;;;;;;;;;18.43;45.70;100174.31;5199356;26;94268;-74
2024/04/08 05:09:09;;;;;;;;;;;;;;;18.47;45.64;100169.81;5193494;26;95305;-70
2024/04/08 05:11:35;;;;;;;;;;;;;;;18.50;45.71;100171.91;5190577;26;94787;-70
2024/04/08 05:14:02;;;;;;;;;;;;;;;18.53;45.78;100173.97;5240480;26;95373;-69
2024/04/08 05:16:29;;;;;;;;;;;;;;;18.58;45.95;100162.88;5220587;26;94675;-74
2024/04/08 05:18:55;;;;;;;;;;;;;;;18.61;45.44;100168.47;5218447;26;95924;-74
2024/04/08 05:21:22;;;;;;;;;;;;;;;18.65;45.71;100168.63;5240325;26;96526;-69
2024/04/08 05:23:49;;;;;;;;;;;;;;;18.69;45.63;100182.41;5184589;26;100578;-69
2024/04/08 05:26:16;;;;;;;;;;;;;;;18.72;45.81;100177.13;5220471;26;95173;-69
2024/04/08 05:28:44;;;;;;;;;;;;;;;18.77;45.71;100184.31;5195319;26;95590;-69
2024/04/08 05:31:12;;;;;;;;;;;;;;;18.79;45.42;100184.81;5194956;26;94531;-74
2024/04/08 05:33:38;;;;;;;;;;;;;;;18.83;45.41;100181.09;5215389;26;94904;-74
2024/04/08 05:36:05;;;;;;;;;;;;;;;18.85;45.39;100194.41;5197324;26;94241;-69
2024/04/08 05:38:31;;;;;;;;;;;;;;;18.87;45.36;100186.69;5222266;26;94524;-69
2024/04/08 05:41:01;;;;;;;;;;;;;;;18.91;45.69;100192.31;5216322;26;96999;-70
2024/04/08 05:43:28;;;;;;;;;;;;;;;18.91;45.38;100190.38;5216201;26;95503;-70
2024/04/08 05:45:55;;;;;;;;;;;;;;;18.93;45.60;100193.56;5199597;26;95576;-74
2024/04/08 05:48:23;;;;;;;;;;;;;;;18.96;45.54;100189.38;5208757;26;96911;-69
2024/04/08 05:50:50;;;;;;;;;;;;;;;19.00;45.65;100198.50;5188132;26;94899;-74
2024/04/08 05:53:16;;;;;;;;;;;;;;;19.03;45.55;100187.72;5199778;26;95504;-74
2024/04/08 05:55:42;;;;;;;;;;;;;;;19.07;45.72;100182.41;5219792;26;94467;-70
2024/04/08 05:58:10;;;;;;;;;;;;;;;19.11;45.36;100181.41;5245657;26;95035;-70
2024/04/08 06:00:38;;;;;;;;;;;;;;;19.17;45.60;100198.38;5216391;26;94421;-74
2024/04/08 06:03:06;;;;;;;;;;;;;;;19.22;45.77;100191.97;5217102;26;95075;-70
2024/04/08 06:05:32;;;;;;;;;;;;;;;19.27;45.73;100187.09;5225477;26;95088;-70
2024/04/08 06:07:58;;;;;;;;;;;;;;;19.33;45.64;100195.88;5195257;26;94803;-74
2024/04/08 06:10:31;;;;;;;;;;;;;;;19.40;45.85;100195.34;5239963;26;95183;-74
2024/04/08 06:12:57;;;;;;;;;;;;;;;19.46;45.52;100185.84;5195854;26;94825;-74
2024/04/08 06:15:23;;;;;;;;;;;;;;;19.50;45.24;100186.78;5223384;26;95136;-74
2024/04/08 06:17:52;;;;;;;;;;;;;;;19.56;45.14;100182.69;5193584;26;95093;-74
2024/04/08 06:20:18;;;;;;;;;;;;;;;19.61;45.52;100187.97;5187167;26;94580;-70
2024/04/08 06:22:44;;;;;;;;;;;;;;;19.68;44.98;100190.97;5226455;26;94812;-74
2024/04/08 06:25:11;;;;;;;;;;;;;;;19.76;45.18;100203.75;5195646;26;95707;-69
2024/04/08 06:27:37;;;;;;;;;;;;;;;19.89;45.51;100198.38;5222663;26;95659;-74
2024/04/08 06:30:05;;;;;;;;;;;;;;;20.00;45.44;100197.63;5191553;26;97051;-74
2024/04/08 06:32:33;;;;;;;;;;;;;;;20.16;44.42;100199.69;5189727;26;95750;-74
2024/04/08 06:35:00;;;;;;;;;;;;;;;20.34;44.15;100193.69;5227327;26;94437;-69
2024/04/08 06:37:26;;;;;;;;;;;;;;;20.53;44.57;100206.88;5200616;26;95269;-70
2024/04/08 06:39:53;;;;;;;;;;;;;;;20.76;44.60;100206.44;5222005;26;95590;-77
2024/04/08 06:42:20;;;;;;;;;;;;;;;21.04;44.43;100212.03;5189575;26;100370;-70
2024/04/08 06:44:49;;;;;;;;;;;;;;;21.25;43.70;100211.88;5201779;26;94861;-70
2024/04/08 06:47:16;;;;;;;;;;;;;;;21.42;44.27;100210.84;5196554;26;96189;-75
2024/04/08 06:49:42;;;;;;;;;;;;;;;21.54;43.60;100217.13;5221012;26;94934;-70
2024/04/08 06:52:09;;;;;;;;;;;;;;;21.63;44.77;100214.22;5198687;26;96793;-75
2024/04/08 06:54:35;;;;;;;;;;;;;;;21.80;44.03;100202.97;5215402;26;95224;-76
2024/04/08 06:57:02;;;;;;;;;;;;;;;21.90;43.99;100211.88;5195614;26;95970;-70
2024/04/08 06:59:30;;;;;;;;;;;;;;;22.00;44.22;100220.38;5192183;26;94952;-75
2024/04/08 07:01:57;;;;;;;;;;;;;;;22.16;44.26;100212.19;5220128;26;95864;-76
2024/04/08 07:04:23;;;;;;;;;;;;;;;22.32;43.53;100209.47;5224912;26;94407;-70
2024/04/08 07:06:49;;;;;;;;;;;;;;;22.47;44.41;100213.41;5225022;26;95879;-75
2024/04/08 07:09:18;;;;;;;;;;;;;;;22.63;44.08;100214.19;5219785;26;95852;-75
2024/04/08 07:11:46;;;;;;;;;;;;;;;22.77;43.77;100222.81;5220697;26;94152;-71
2024/04/08 07:14:13;;;;;;;;;;;;;;;22.96;43.80;100232.31;5219183;26;96611;-75
2024/04/08 07:16:40;;;;;;;;;;;;;;;23.12;43.67;100219.34;5223483;26;94830;-75
2024/04/08 07:19:06;;;;;;;;;;;;;;;23.29;43.37;100229.13;5222830;26;96378;-70
2024/04/08 07:21:32;;;;;;;;;;;;;;;23.46;43.78;100234.25;5221499;26;94140;-71
2024/04/08 07:23:58;;;;;;;;;;;;;;;23.62;43.27;100236.94;5188977;26;94692;-71
2024/04/08 07:26:26;;;;;;;;;;;;;;;23.77;43.61;100219.56;5216883;26;94796;-71
2024/04/08 07:28:52;;;;;;;;;;;;;;;23.96;43.78;100216.03;5212403;26;95629;-71
2024/04/08 07:31:19;;;;;;;;;;;;;;;24.15;43.30;100212.47;5195095;26;95805;-74
2024/04/08 07:33:46;;;;;;;;;;;;;;;24.36;42.85;100211.25;5198674;26;94833;-75
2024/04/08 07:36:13;;;;;;;;;;;;;;;24.58;43.63;100218.75;5195041;26;95069;-70
2024/04/08 07:38:39;;;;;;;;;;;;;;;24.78;43.75;100218.69;5217009;26;94891;-70
2024/04/08 07:41:05;;;;;;;;;;;;;;;24.98;42.83;100223.72;5215667;26;96965;-71
2024/04/08 07:43:33;;;;;;;;;;;;;;;25.21;43.26;100214.66;5198698;26;95557;-75
2024/04/08 07:46:01;;;;;;;;;;;;;;;25.46;43.15;100214.97;5197873;26;94610;-74
2024/04/08 07:48:29;;;;;;;;;;;;;;;25.71;43.01;100218.88;5199612;26;95324;-74
2024/04/08 07:50:57;;;;;;;;;;;;;;;25.97;43.23;100222.72;5185640;26;96425;-75
2024/04/08 07:53:23;;;;;;;;;;;;;;;26.25;42.08;100224.22;5213088;26;94770;-70
2024/04/08 07:55:51;;;;;;;;;;;;;;;26.54;43.14;100228.09;5214881;26;94476;-74
2024/04/08 07:58:17;;;;;;;;;;;;;;;26.82;42.60;100224.75;5223506;26;96948;-71
2024/04/08 08:00:43;;;;;;;;;;;;;;;27.13;42.39;100217.91;5218138;26;114953;-71
2024/04/08 08:03:09;;;;;;;;;;;;;;;27.48;41.65;100228.38;5218232;26;100354;-71
2024/04/08 08:05:35;;;;;;;;;;;;;;;27.86;41.72;100224.22;5212075;26;94679;-75
2024/04/08 08:08:02;;;;;;;;;;;;;;;28.28;42.27;100231.03;5193778;26;94254;-74
2024/04/08 08:10:28;;;;;;;;;;;;;;;28.66;42.06;100222.41;5214344;26;94661;-70
2024/04/08 08:12:54;;;;;;;;;;;;;;;29.12;41.83;100219.59;5189256;26;95393;-71
2024/04/08 08:15:24;;;;;;;;;;;;;;;29.57;41.09;100220.72;5190925;26;95064;-74
2024/04/08 08:17:50;;;;;;;;;;;;;;;30.00;41.65;100217.72;5220516;26;94877;-76
2024/04/08 08:20:17;;;;;;;;;;;;;;;30.44;40.72;100221.84;5210906;26;96720;-74
2024/04/08 08:22:43;;;;;;;;;;;;;;;30.89;41.11;100219.13;5217529;26;94808;-71
2024/04/08 08:25:10;;;;;;;;;;;;;;;31.34;40.91;100215.50;5213758;26;94328;-71
2024/04/08 08:27:36;;;;;;;;;;;;;;;31.78;40.43;100220.91;5217462;26;94336;-71
2024/04/08 08:30:02;;;;;;;;;;;;;;;32.24;40.39;100213.94;5194596;26;94762;-74
2024/04/08 08:32:30;;;;;;;;;;;;;;;32.68;40.00;100206.50;5194130;26;94638;-74
2024/04/08 08:34:56;;;;;;;;;;;;;;;33.14;39.70;100202.13;5242252;26;94247;-71
2024/04/08 08:37:22;;;;;;;;;;;;;;;33.57;40.32;100194.91;5190059;26;94581;-71
2024/04/08 08:39:50;;;;;;;;;;;;;;;33.96;39.57;100188.47;5198145;26;94475;-71
2024/04/08 08:42:19;;;;;;;;;;;;;;;34.40;39.64;100189.84;5193716;26;95685;-71
2024/04/08 08:44:52;;;;;;;;;;;;;;;34.85;39.63;100188.31;5242179;26;94468;-71
2024/04/08 08:47:22;;;;;;;;;;;;;;;35.31;39.74;100195.47;5238760;26;94880;-71
2024/04/08 08:49:55;;;;;;;;;;;;;;;35.75;39.76;100186.63;5225829;26;95150;-72
2024/04/08 08:52:30;;;;;;;;;;;;;;;36.21;38.88;100190.03;5200700;26;94646;-74
2024/04/08 08:54:56;;;;;;;;;;;;;;;36.64;39.16;100185.84;5245652;26;97749;-72
2024/04/08 08:57:25;;;;;;;;;;;;;;;37.00;39.01;100185.41;5215200;26;94389;-74
2024/04/08 08:59:51;;;;;;;;;;;;;;;37.38;38.88;100173.22;5223764;26;94236;-73
2024/04/08 09:02:17;;;;;;;;;;;;;;;37.71;38.82;100196.06;5225675;26;96093;-74
2024/04/08 09:04:44;;;;;;;;;;;;;;;38.05;38.88;100181.88;5220424;26;94880;-73
2024/04/08 09:07:10;;;;;;;;;;;;;;;38.39;38.61;100170.88;5200314;26;94513;-73
2024/04/08 09:09:36;;;;;;;;;;;;;;;38.71;38.57;100163.88;5202403;26;94490;-73
2024/04/08 09:12:02;;;;;;;;;;;;;;;39.01;38.11;100162.19;5220688;26;97658;-73
2024/04/08 09:14:30;;;;;;;;;;;;;;;39.27;38.48;100169.06;5214323;26;94755;-73
2024/04/08 09:17:10;;;;;;;;;;;;;;;39.56;38.28;100176.19;5229305;26;94552;-74
2024/04/08 09:19:36;;;;;;;;;;;;;;;39.80;38.64;100175.50;5193464;26;95598;-74
2024/04/08 09:22:05;;;;;;;;;;;;;;;39.91;37.96;100175.78;5219844;26;97382;-74
2024/04/08 09:24:32;;;;;;;;;;;;;;;40.05;38.62;100172.28;5203694;26;96168;-74
2024/04/08 09:26:58;;;;;;;;;;;;;;;40.27;38.33;100174.84;5193232;26;94619;-74
2024/04/08 09:29:25;;;;;;;;;;;;;;;40.56;37.85;100164.94;5190666;26;95559;-74
2024/04/08 09:31:52;;;;;;;;;;;;;;;40.90;38.10;100164.34;5190399;26;94970;-74
2024/04/08 09:34:24;;;;;;;;;;;;;;;41.10;38.40;100160.91;5193065;26;94794;-74
2024/04/08 09:36:50;;;;;;;;;;;;;;;41.22;38.07;100147.75;5196142;26;95343;-74
2024/04/08 09:39:16;;;;;;;;;;;;;;;41.56;37.61;100143.47;5240981;26;95565;-74
2024/04/08 09:41:42;;;;;;;;;;;;;;;41.79;37.96;100124.81;5225918;26;98261;-74
2024/04/08 09:44:09;;;;;;;;;;;;;;;41.99;37.83;100112.00;5230578;26;95074;-74
2024/04/08 09:46:36;;;;;;;;;;;;;;;41.91;37.90;100114.47;5193656;26;94581;-74
2024/04/08 09:49:03;;;;;;;;;;;;;;;41.11;38.64;100110.81;5203388;26;95870;-74
2024/04/08 09:51:30;;;;;;;;;;;;;;;40.55;39.01;100121.81;5200907;26;95379;-73
2024/04/08 09:53:56;;;;;;;;;;;;;;;40.71;39.30;100117.75;5220306;26;95901;-74
2024/04/08 09:56:23;;;;;;;;;;;;;;;40.57;38.52;100110.06;5203439;26;98251;-73
2024/04/08 09:59:03;;;;;;;;;;;;;;;40.26;39.41;100116.06;5202191;26;95100;-73
2024/04/08 10:01:29;;;;;;;;;;;;;;;40.36;38.74;100104.22;5200417;26;94933;-74
2024/04/08 10:03:58;;;;;;;;;;;;;;;40.10;39.45;100109.56;5223560;26;94315;-73
2024/04/08 10:06:24;;;;;;;;;;;;;;;39.62;39.61;100103.84;5212356;26;94772;-73
2024/04/08 10:08:51;;;;;;;;;;;;;;;38.73;40.36;100102.25;5216004;26;94698;-73
2024/04/08 10:11:17;;;;;;;;;;;;;;;38.03;40.85;100096.38;5223734;26;95101;-73
2024/04/08 10:13:47;;;;;;;;;;;;;;;37.35;41.13;100097.00;5195547;26;97457;-73
2024/04/08 10:16:15;;;;;;;;;;;;;;;36.70;41.47;100097.78;5220322;26;95481;-73
2024/04/08 10:18:54;;;;;;;;;;;;;;;36.12;41.41;100084.97;5195117;26;95957;-73
2024/04/08 10:21:22;;;;;;;;;;;;;;;35.52;42.24;100093.25;5200487;26;94823;-73
2024/04/08 10:23:54;;;;;;;;;;;;;;;35.02;42.01;100102.31;5197827;26;94260;-73
2024/04/08 10:26:28;;;;;;;;;;;;;;;34.54;42.26;100079.63;5193795;26;94955;-73
2024/04/08 10:28:56;;;;;;;;;;;;;;;34.14;42.04;100079.81;5192938;26;94289;-73
2024/04/08 10:31:28;;;;;;;;;;;;;;;33.86;42.20;100072.13;5219544;26;95307;-72
2024/04/08 10:33:54;;;;;;;;;;;;;;;33.56;42.69;100071.22;5223248;26;95574;-73
2024/04/08 10:36:20;;;;;;;;;;;;;;;33.30;42.38;100069.41;5195488;26;94229;-73
2024/04/08 10:38:48;;;;;;;;;;;;;;;33.00;42.65;100068.41;5222257;26;94660;-72
2024/04/08 10:41:15;;;;;;;;;;;;;;;32.76;42.84;100070.47;5218412;26;94524;-72
2024/04/08 10:43:42;;;;;;;;;;;;;;;32.56;42.63;100070.44;5221318;26;96245;-72
2024/04/08 10:46:17;;;;;;;;;;;;;;;32.41;42.77;100064.34;5194918;26;95322;-72
2024/04/08 10:48:44;;;;;;;;;;;;;;;32.29;42.67;100055.78;5226202;26;94891;-72
2024/04/08 10:51:12;;;;;;;;;;;;;;;32.22;42.19;100042.75;5223560;26;94587;-72
2024/04/08 10:53:42;;;;;;;;;;;;;;;32.25;41.98;100051.06;5202257;26;94649;-72
2024/04/08 10:56:09;;;;;;;;;;;;;;;32.69;41.71;100049.06;5185821;26;97956;-73
2024/04/08 10:58:36;;;;;;;;;;;;;;;33.03;41.58;100064.78;5219537;26;95078;-72
2024/04/08 11:01:05;;;;;;;;;;;;;;;32.93;41.71;100066.59;5230690;26;94388;-72
2024/04/08 11:03:34;;;;;;;;;;;;;;;32.73;41.54;100074.09;5223199;26;94975;-72
2024/04/08 11:06:00;;;;;;;;;;;;;;;32.57;41.98;100052.50;5195998;26;94296;-72
2024/04/08 11:08:29;;;;;;;;;;;;;;;32.41;42.10;100060.75;5223320;26;95664;-73
2024/04/08 11:10:59;;;;;;;;;;;;;;;32.39;41.68;100061.19;5194841;26;95563;-72
2024/04/08 11:13:26;;;;;;;;;;;;;;;32.58;41.71;100053.28;5199705;26;95025;-72
2024/04/08 11:15:52;;;;;;;;;;;;;;;33.27;40.60;100061.88;5222093;26;94939;-72
2024/04/08 11:18:22;;;;;;;;;;;;;;;34.39;39.38;100054.03;5226140;26;94645;-72
2024/04/08 11:20:48;;;;;;;;;;;;;;;35.27;39.84;100068.78;5201790;26;96053;-73
2024/04/08 11:23:19;;;;;;;;;;;;;;;35.98;38.46;100074.22;5202935;26;94803;-73
2024/04/08 11:25:47;;;;;;;;;;;;;;;36.59;39.03;100069.38;5221025;26;97804;-73
2024/04/08 11:28:13;;;;;;;;;;;;;;;37.19;38.26;100063.53;5217518;26;94744;-73
2024/04/08 11:30:39;;;;;;;;;;;;;;;37.42;38.41;100062.28;5224709;26;97275;-73
2024/04/08 11:33:06;;;;;;;;;;;;;;;37.35;38.70;100059.72;5222324;26;95110;-73
2024/04/08 11:35:32;;;;;;;;;;;;;;;37.07;38.79;100050.38;5223665;26;94878;-73
2024/04/08 11:37:58;;;;;;;;;;;;;;;36.77;39.32;100049.84;5239595;26;95403;-73
2024/04/08 11:40:25;;;;;;;;;;;;;;;36.82;39.28;100040.81;5183949;26;95075;-73
2024/04/08 11:42:51;;;;;;;;;;;;;;;36.92;39.56;100043.69;5219050;26;94753;-73
2024/04/08 11:45:17;;;;;;;;;;;;;;;37.08;39.20;100049.13;5218546;26;94872;-73
2024/04/08 11:47:44;;;;;;;;;;;;;;;37.16;39.44;100053.22;5215926;26;96081;-73
2024/04/08 11:50:11;;;;;;;;;;;;;;;37.08;39.54;100044.28;5222958;26;94856;-73
2024/04/08 11:52:37;;;;;;;;;;;;;;;37.61;38.95;100037.03;5197615;26;94777;-73
2024/04/08 11:55:03;;;;;;;;;;;;;;;37.88;38.91;100027.94;5196081;26;94260;-73
2024/04/08 11:57:30;;;;;;;;;;;;;;;38.04;39.11;100033.25;5200926;26;95328;-73
2024/04/08 11:59:56;;;;;;;;;;;;;;;38.13;38.97;100026.88;5218254;26;94944;-73
2024/04/08 12:02:23;;;;;;;;;;;;;;;38.21;38.82;100020.47;5220393;26;95208;-73
2024/04/08 12:04:52;;;;;;;;;;;;;;;38.34;38.88;100022.38;5196684;26;94794;-73
2024/04/08 12:07:18;;;;;;;;;;;;;;;38.42;39.19;100021.59;5211206;26;95123;-73
2024/04/08 12:09:45;;;;;;;;;;;;;;;38.45;38.87;100015.03;5216443;26;96228;-73
2024/04/08 12:12:14;;;;;;;;;;;;;;;38.46;38.94;100019.41;5205443;26;95653;-73
2024/04/08 12:14:41;;;;;;;;;;;;;;;38.39;38.88;100016.13;5220877;26;95447;-73
2024/04/08 12:17:08;;;;;;;;;;;;;;;38.26;39.16;100013.44;5203537;26;95970;-73
2024/04/08 12:19:35;;;;;;;;;;;;;;;38.27;39.32;100009.38;5232945;26;95648;-73
2024/04/08 12:22:01;;;;;;;;;;;;;;;38.35;39.24;100010.66;5202960;26;95656;-73
2024/04/08 12:24:27;;;;;;;;;;;;;;;38.44;39.20;100007.06;5189975;26;96481;-73
2024/04/08 12:26:53;;;;;;;;;;;;;;;38.44;39.12;100010.66;5231088;26;94730;-73
2024/04/08 12:29:19;;;;;;;;;;;;;;;38.40;39.14;100001.59;5197274;26;94695;-73
2024/04/08 12:31:46;;;;;;;;;;;;;;;38.03;39.75;100004.38;5196430;26;94478;-73
2024/04/08 12:34:12;;;;;;;;;;;;;;;38.03;39.90;100003.59;5200643;26;96659;-73